createdAt,value
2022-12-31T00:00:40.133Z,0.80
2022-12-31T00:03:08.836Z,0.80
2022-12-31T00:05:38.489Z,1.13
2022-12-31T00:08:06.729Z,1.03
2022-12-31T00:10:41.571Z,1.03
2022-12-31T00:13:10.250Z,0.90
2022-12-31T00:15:38.528Z,2.80
2022-12-31T00:18:07.363Z,1.00
2022-12-31T00:20:35.498Z,0.60
2022-12-31T00:23:04.929Z,1.67
2022-12-31T00:25:32.852Z,1.20
2022-12-31T00:28:00.982Z,0.60
2022-12-31T00:30:29.072Z,0.80
2022-12-31T00:32:57.261Z,0.70
2022-12-31T00:35:25.224Z,0.50
2022-12-31T00:37:53.891Z,1.07
2022-12-31T00:40:23.713Z,0.90
2022-12-31T00:42:51.677Z,0.77
2022-12-31T00:45:19.764Z,0.60
2022-12-31T00:47:47.791Z,0.77
2022-12-31T00:50:15.674Z,0.50
2022-12-31T00:52:44.041Z,0.70
2022-12-31T00:55:12.020Z,0.50
2022-12-31T00:57:41.315Z,0.80
2022-12-31T01:00:10.872Z,1.00
2022-12-31T01:02:38.977Z,0.70
2022-12-31T01:05:08.166Z,0.60
2022-12-31T01:07:38.266Z,1.63
2022-12-31T01:10:07.221Z,0.73
2022-12-31T01:12:35.478Z,0.60
2022-12-31T01:15:05.491Z,0.70
2022-12-31T01:17:33.407Z,0.60
2022-12-31T01:20:08.032Z,1.20
2022-12-31T01:22:41.950Z,0.53
2022-12-31T01:25:16.431Z,0.80
2022-12-31T01:27:52.465Z,1.03
2022-12-31T01:30:48.909Z,0.60
2022-12-31T01:33:39.627Z,1.10
2022-12-31T01:36:26.175Z,0.70
2022-12-31T01:38:58.639Z,0.57
2022-12-31T01:41:41.747Z,0.90
2022-12-31T01:44:47.979Z,1.07
2022-12-31T01:47:22.326Z,0.70
2022-12-31T01:49:55.049Z,0.60
2022-12-31T01:52:26.154Z,1.30
2022-12-31T01:54:57.885Z,0.60
2022-12-31T01:57:27.524Z,0.60
2022-12-31T01:59:56.731Z,0.53
2022-12-31T02:02:27.256Z,0.60
2022-12-31T02:04:59.086Z,1.17
2022-12-31T02:07:27.424Z,0.60
2022-12-31T02:09:55.538Z,4.33
2022-12-31T02:12:24.069Z,1.37
2022-12-31T02:14:54.247Z,0.60
2022-12-31T02:17:31.808Z,0.90
2022-12-31T02:20:33.608Z,0.60
2022-12-31T02:23:37.509Z,0.90
2022-12-31T02:26:29.521Z,1.00
2022-12-31T02:29:40.336Z,0.60
2022-12-31T02:32:17.541Z,0.60
2022-12-31T02:34:49.475Z,1.43
2022-12-31T02:37:19.429Z,0.70
2022-12-31T02:39:48.807Z,0.87
2022-12-31T02:42:16.769Z,0.93
2022-12-31T02:44:44.809Z,0.83
2022-12-31T02:47:27.491Z,0.60
2022-12-31T02:50:11.633Z,0.60
2022-12-31T02:52:50.324Z,1.13
2022-12-31T02:55:25.748Z,1.53
2022-12-31T03:01:37.024Z,0.80
2022-12-31T03:04:38.166Z,0.60
2022-12-31T03:07:28.027Z,1.10
2022-12-31T03:10:15.956Z,0.60
2022-12-31T03:12:47.852Z,0.60
2022-12-31T03:15:31.686Z,0.60
2022-12-31T03:18:22.555Z,0.60
2022-12-31T03:21:19.925Z,0.70
2022-12-31T03:24:24.042Z,0.60
2022-12-31T03:27:12.059Z,0.50
2022-12-31T03:29:55.769Z,0.67
2022-12-31T03:32:34.466Z,1.10
2022-12-31T03:35:14.507Z,0.60
2022-12-31T03:37:50.674Z,0.50
2022-12-31T03:40:21.696Z,0.50
2022-12-31T03:42:49.870Z,0.60
2022-12-31T03:45:18.756Z,0.70
2022-12-31T03:47:46.921Z,0.70
2022-12-31T03:50:17.445Z,0.60
2022-12-31T03:52:47.120Z,1.20
2022-12-31T03:55:15.995Z,0.90
2022-12-31T03:57:44.345Z,1.03
2022-12-31T04:00:15.806Z,0.80
2022-12-31T04:02:43.961Z,0.80
2022-12-31T04:05:13.281Z,0.60
2022-12-31T04:07:41.588Z,0.50
2022-12-31T04:10:13.467Z,2.23
2022-12-31T04:12:41.769Z,0.70
2022-12-31T04:15:12.557Z,0.53
2022-12-31T04:17:40.448Z,0.77
2022-12-31T04:20:09.901Z,0.60
2022-12-31T04:22:37.798Z,0.60
2022-12-31T04:25:07.060Z,0.70
2022-12-31T04:27:36.513Z,0.67
2022-12-31T04:30:04.966Z,0.67
2022-12-31T04:32:33.038Z,1.03
2022-12-31T04:35:01.111Z,0.70
2022-12-31T04:37:29.220Z,1.27
2022-12-31T04:40:03.541Z,0.60
2022-12-31T04:42:33.809Z,0.50
2022-12-31T04:45:03.368Z,0.60
2022-12-31T04:47:31.361Z,0.60
2022-12-31T04:49:59.753Z,0.70
2022-12-31T04:52:27.652Z,0.60
2022-12-31T04:54:55.769Z,0.60
2022-12-31T04:57:24.111Z,1.00
2022-12-31T04:59:52.016Z,0.60
2022-12-31T05:02:21.629Z,1.53
2022-12-31T05:04:49.812Z,0.90
2022-12-31T05:07:17.965Z,0.70
2022-12-31T05:09:45.880Z,1.83
2022-12-31T05:12:14.099Z,0.60
2022-12-31T05:14:42.099Z,0.50
2022-12-31T05:17:10.153Z,0.50
2022-12-31T05:19:39.700Z,0.60
2022-12-31T05:22:25.364Z,0.50
2022-12-31T05:24:53.272Z,0.50
2022-12-31T05:27:21.615Z,0.60
2022-12-31T05:29:49.765Z,0.93
2022-12-31T05:32:17.889Z,0.90
2022-12-31T05:34:47.252Z,0.60
2022-12-31T05:37:15.338Z,0.60
2022-12-31T05:39:43.233Z,0.70
2022-12-31T05:42:11.148Z,0.70
2022-12-31T05:44:39.165Z,0.60
2022-12-31T05:47:07.113Z,0.60
2022-12-31T05:49:35.358Z,0.60
2022-12-31T05:52:04.887Z,0.60
2022-12-31T05:54:32.962Z,0.63
2022-12-31T05:57:01.014Z,0.70
2022-12-31T05:59:29.130Z,0.67
2022-12-31T06:01:57.227Z,0.90
2022-12-31T06:04:25.372Z,0.60
2022-12-31T06:06:53.300Z,1.53
2022-12-31T06:09:23.043Z,0.60
2022-12-31T06:11:51.013Z,0.60
2022-12-31T06:14:19.182Z,1.33
2022-12-31T06:16:47.060Z,0.70
2022-12-31T06:19:15.242Z,0.80
2022-12-31T06:21:43.313Z,0.70
2022-12-31T06:24:11.447Z,0.63
2022-12-31T06:26:40.854Z,0.60
2022-12-31T06:29:09.051Z,0.70
2022-12-31T06:31:37.309Z,0.83
2022-12-31T06:34:05.881Z,0.70
2022-12-31T06:36:34.022Z,0.63
2022-12-31T06:39:03.266Z,0.60
2022-12-31T06:41:32.501Z,0.70
2022-12-31T06:44:01.953Z,1.23
2022-12-31T06:46:30.129Z,0.67
2022-12-31T06:48:58.143Z,0.93
2022-12-31T06:51:26.192Z,1.03
2022-12-31T06:53:54.256Z,0.70
2022-12-31T06:56:31.259Z,0.70
2022-12-31T06:59:03.832Z,0.70
2022-12-31T07:01:49.913Z,0.80
2022-12-31T07:04:39.395Z,0.90
2022-12-31T07:07:15.277Z,0.80
2022-12-31T07:09:51.181Z,0.60
2022-12-31T07:12:32.410Z,1.43
2022-12-31T07:15:07.294Z,1.00
2022-12-31T07:17:45.993Z,4.23
2022-12-31T07:20:16.361Z,0.60
2022-12-31T07:22:44.714Z,0.80
2022-12-31T07:25:16.069Z,0.60
2022-12-31T07:27:54.013Z,0.90
2022-12-31T07:30:31.107Z,0.60
2022-12-31T07:33:20.648Z,0.60
2022-12-31T07:35:57.936Z,0.80
2022-12-31T07:38:35.582Z,0.90
2022-12-31T07:41:10.925Z,0.80
2022-12-31T07:43:50.346Z,1.43
2022-12-31T07:46:27.184Z,1.00
2022-12-31T07:48:55.730Z,0.90
2022-12-31T07:51:24.411Z,1.63
2022-12-31T07:53:52.323Z,1.03
2022-12-31T07:56:20.294Z,0.77
2022-12-31T07:59:02.567Z,0.80
2022-12-31T08:01:48.302Z,1.27
2022-12-31T08:04:25.801Z,0.93
2022-12-31T08:07:03.660Z,1.57
2022-12-31T08:09:43.293Z,1.27
2022-12-31T08:12:11.387Z,1.00
2022-12-31T08:14:45.681Z,1.40
2022-12-31T08:17:17.780Z,2.13
2022-12-31T08:19:46.824Z,1.33
2022-12-31T08:22:41.255Z,1.13
2022-12-31T08:25:17.820Z,0.90
2022-12-31T08:27:56.079Z,1.17
2022-12-31T08:30:27.808Z,1.67
2022-12-31T08:33:08.032Z,2.70
2022-12-31T08:35:48.705Z,1.23
2022-12-31T08:38:27.538Z,2.10
2022-12-31T08:41:02.481Z,1.47
2022-12-31T08:43:45.670Z,2.50
2022-12-31T08:46:20.558Z,2.80
2022-12-31T08:48:50.859Z,1.43
2022-12-31T08:51:22.606Z,1.40
2022-12-31T08:53:51.904Z,4.90
2022-12-31T08:56:28.357Z,3.00
2022-12-31T08:59:15.949Z,2.00
2022-12-31T09:02:15.195Z,1.83
2022-12-31T09:04:54.445Z,2.97
2022-12-31T09:07:31.665Z,1.03
2022-12-31T09:10:05.679Z,3.10
2022-12-31T09:12:39.201Z,1.70
2022-12-31T09:15:16.330Z,1.80
2022-12-31T09:17:47.092Z,1.97
2022-12-31T09:20:22.088Z,1.37
2022-12-31T09:22:50.582Z,1.23
2022-12-31T09:25:21.380Z,4.07
2022-12-31T09:28:00.718Z,1.10
2022-12-31T09:30:33.645Z,1.60
2022-12-31T09:33:05.613Z,1.90
2022-12-31T09:35:39.461Z,1.47
2022-12-31T09:38:15.336Z,1.20
2022-12-31T09:41:05.426Z,2.40
2022-12-31T09:44:13.944Z,1.20
2022-12-31T09:47:15.771Z,1.07
2022-12-31T09:50:19.848Z,1.03
2022-12-31T09:53:07.071Z,1.40
2022-12-31T09:55:45.663Z,0.90
2022-12-31T09:58:29.241Z,1.13
2022-12-31T10:01:02.312Z,5.60
2022-12-31T10:03:53.200Z,1.00
2022-12-31T10:06:27.093Z,2.20
2022-12-31T10:09:12.327Z,0.90
2022-12-31T10:12:02.727Z,1.40
2022-12-31T10:14:47.693Z,1.07
2022-12-31T10:17:28.219Z,2.13
2022-12-31T10:20:28.369Z,3.40
2022-12-31T10:23:15.428Z,1.20
2022-12-31T10:26:11.780Z,1.93
2022-12-31T10:28:53.370Z,1.13
2022-12-31T10:31:38.249Z,0.97
2022-12-31T10:34:17.551Z,1.83
2022-12-31T10:36:54.794Z,1.53
2022-12-31T10:39:35.683Z,1.30
2022-12-31T10:42:25.697Z,1.17
2022-12-31T10:45:32.403Z,1.60
2022-12-31T10:48:31.805Z,1.30
2022-12-31T10:51:41.709Z,1.13
2022-12-31T10:54:27.846Z,3.70
2022-12-31T10:57:21.865Z,3.80
2022-12-31T11:00:12.152Z,5.10
2022-12-31T11:03:27.030Z,2.77
2022-12-31T11:06:45.187Z,1.93
2022-12-31T11:09:45.549Z,1.70
2022-12-31T11:12:34.490Z,4.13
2022-12-31T11:15:19.378Z,4.10
2022-12-31T11:18:00.674Z,5.60
2022-12-31T11:20:58.217Z,4.30
2022-12-31T11:23:36.607Z,6.03
2022-12-31T11:26:15.376Z,4.00
2022-12-31T11:29:25.504Z,5.97
2022-12-31T11:32:12.107Z,4.53
2022-12-31T11:35:04.327Z,4.40
2022-12-31T11:37:42.228Z,8.67
2022-12-31T11:40:25.909Z,2.90
2022-12-31T11:42:58.713Z,4.50
2022-12-31T11:45:50.793Z,3.30
2022-12-31T11:48:30.478Z,1.83
2022-12-31T11:51:16.460Z,3.13
2022-12-31T11:54:17.473Z,3.80
2022-12-31T11:56:52.307Z,2.80
2022-12-31T11:59:20.544Z,3.53
2022-12-31T12:01:56.129Z,6.60
2022-12-31T12:04:24.337Z,2.87
2022-12-31T12:06:53.890Z,1.60
2022-12-31T12:09:28.829Z,3.10
2022-12-31T12:12:01.871Z,2.93
2022-12-31T12:14:34.142Z,2.63
2022-12-31T12:17:05.642Z,3.33
2022-12-31T12:19:36.549Z,15.47
2022-12-31T12:22:12.140Z,3.57
2022-12-31T12:24:40.526Z,4.77
2022-12-31T12:27:23.099Z,2.30
2022-12-31T12:29:51.012Z,3.03
2022-12-31T12:32:22.005Z,5.73
2022-12-31T12:34:50.388Z,6.43
2022-12-31T12:37:28.685Z,3.07
2022-12-31T12:39:58.975Z,5.90
2022-12-31T12:42:26.884Z,5.40
2022-12-31T12:45:08.835Z,2.93
2022-12-31T12:47:38.133Z,4.70
2022-12-31T12:50:12.444Z,6.23
2022-12-31T12:52:59.570Z,8.30
2022-12-31T12:55:37.941Z,2.70
2022-12-31T12:58:19.046Z,3.87
2022-12-31T13:00:52.591Z,2.70
2022-12-31T13:04:31.961Z,4.23
2022-12-31T13:06:54.844Z,1.20
2022-12-31T13:09:36.748Z,2.00
2022-12-31T13:12:15.867Z,1.37
2022-12-31T13:14:51.892Z,1.47
2022-12-31T13:17:53.344Z,2.60
2022-12-31T13:20:30.773Z,1.53
2022-12-31T13:23:05.104Z,2.97
2022-12-31T13:25:42.253Z,1.93
2022-12-31T13:28:14.296Z,1.77
2022-12-31T13:30:45.896Z,1.17
2022-12-31T13:33:18.936Z,1.67
2022-12-31T13:35:51.176Z,1.80
2022-12-31T13:38:22.747Z,3.53
2022-12-31T13:40:57.545Z,2.00
2022-12-31T13:43:33.864Z,1.63
2022-12-31T13:46:10.797Z,1.97
2022-12-31T13:48:45.809Z,2.03
2022-12-31T13:51:19.424Z,3.70
2022-12-31T13:53:54.956Z,3.10
2022-12-31T13:56:26.969Z,1.37
2022-12-31T13:59:01.421Z,4.47
2022-12-31T14:01:34.520Z,1.20
2022-12-31T14:04:09.964Z,1.57
2022-12-31T14:06:46.720Z,2.20
2022-12-31T14:09:20.900Z,3.43
2022-12-31T14:12:09.994Z,1.00
2022-12-31T14:14:45.455Z,1.60
2022-12-31T14:17:20.301Z,2.03
2022-12-31T14:20:00.403Z,2.00
2022-12-31T14:22:37.173Z,2.33
2022-12-31T14:25:12.013Z,2.80
2022-12-31T14:27:44.127Z,0.90
2022-12-31T14:30:17.596Z,2.40
2022-12-31T14:33:09.890Z,2.30
2022-12-31T14:35:57.015Z,3.17
2022-12-31T14:38:40.979Z,7.67
2022-12-31T14:41:20.757Z,9.03
2022-12-31T14:43:59.978Z,4.70
2022-12-31T14:46:33.081Z,7.10
2022-12-31T14:49:14.555Z,7.27
2022-12-31T14:51:43.184Z,9.77
2022-12-31T14:54:29.341Z,5.07
2022-12-31T14:56:57.457Z,6.97
2022-12-31T14:59:28.739Z,14.20
2022-12-31T15:01:58.282Z,6.13
2022-12-31T15:04:33.293Z,6.17
2022-12-31T15:07:08.911Z,6.17
2022-12-31T15:09:57.812Z,3.10
2022-12-31T15:12:47.917Z,3.60
2022-12-31T15:15:33.645Z,4.17
2022-12-31T15:18:15.118Z,4.20
2022-12-31T15:20:58.361Z,2.60
2022-12-31T15:23:33.059Z,4.17
2022-12-31T15:26:03.635Z,4.27
2022-12-31T15:28:34.835Z,7.20
2022-12-31T15:31:06.758Z,5.73
2022-12-31T15:33:39.039Z,2.90
2022-12-31T15:36:17.413Z,6.40
2022-12-31T15:38:46.257Z,5.80
2022-12-31T15:41:25.733Z,8.03
2022-12-31T15:43:58.929Z,8.00
2022-12-31T15:46:30.168Z,14.87
2022-12-31T15:49:05.151Z,6.23
2022-12-31T15:51:44.401Z,6.70
2022-12-31T15:54:25.458Z,5.87
2022-12-31T15:56:55.553Z,10.90
2022-12-31T15:59:26.073Z,5.43
2022-12-31T16:01:57.176Z,10.00
2022-12-31T16:04:27.218Z,5.30
2022-12-31T16:06:55.753Z,7.30
2022-12-31T16:09:26.374Z,6.03
2022-12-31T16:11:58.115Z,10.93
2022-12-31T16:14:31.575Z,9.30
2022-12-31T16:17:01.469Z,8.50
2022-12-31T16:19:33.225Z,12.53
2022-12-31T16:22:07.631Z,11.20
2022-12-31T16:24:48.889Z,14.00
2022-12-31T16:27:26.513Z,11.57
2022-12-31T16:30:00.976Z,13.67
2022-12-31T16:32:35.611Z,11.00
2022-12-31T16:35:05.919Z,12.70
2022-12-31T16:37:38.133Z,9.77
2022-12-31T16:40:19.416Z,12.47
2022-12-31T16:42:49.023Z,12.57
2022-12-31T16:45:30.207Z,9.87
2022-12-31T16:47:59.948Z,15.70
2022-12-31T16:50:27.960Z,11.23
2022-12-31T16:53:01.632Z,12.03
2022-12-31T16:55:31.461Z,9.47
2022-12-31T16:58:04.847Z,15.40
2022-12-31T17:00:34.088Z,15.10
2022-12-31T17:03:09.029Z,26.40
2022-12-31T17:05:57.304Z,18.07
2022-12-31T17:08:27.478Z,18.23
2022-12-31T17:10:56.387Z,18.90
2022-12-31T17:13:30.751Z,16.77
2022-12-31T17:15:59.665Z,19.47
2022-12-31T17:18:31.431Z,15.83
2022-12-31T17:21:08.695Z,15.43
2022-12-31T17:23:39.874Z,19.33
2022-12-31T17:26:12.035Z,18.67
2022-12-31T17:28:46.839Z,22.30
2022-12-31T17:31:30.918Z,17.67
2022-12-31T17:34:23.168Z,22.97
2022-12-31T17:37:03.212Z,25.93
2022-12-31T17:39:47.751Z,19.60
2022-12-31T17:42:29.438Z,23.70
2022-12-31T17:45:01.875Z,18.97
2022-12-31T17:47:37.865Z,19.80
2022-12-31T17:50:20.770Z,15.77
2022-12-31T17:52:48.990Z,15.70
2022-12-31T17:55:17.560Z,18.43
2022-12-31T17:57:50.400Z,19.00
2022-12-31T18:00:21.914Z,15.23
2022-12-31T18:02:49.978Z,18.20
2022-12-31T18:05:19.125Z,19.80
2022-12-31T18:07:47.795Z,14.93
2022-12-31T18:10:19.085Z,13.52
2022-12-31T18:12:48.420Z,14.20
2022-12-31T18:15:18.146Z,19.20
2022-12-31T18:17:47.524Z,17.10
2022-12-31T18:20:15.927Z,22.87
2022-12-31T18:22:46.014Z,19.88
2022-12-31T18:25:17.971Z,17.63
2022-12-31T18:27:46.154Z,18.17
2022-12-31T18:30:16.470Z,22.90
2022-12-31T18:32:46.313Z,23.80
2022-12-31T18:35:40.704Z,18.57
2022-12-31T18:38:11.670Z,24.00
2022-12-31T18:40:42.717Z,17.30
2022-12-31T18:43:17.062Z,23.30
2022-12-31T18:45:45.357Z,21.70
2022-12-31T18:48:13.769Z,23.38
2022-12-31T18:50:43.426Z,15.70
2022-12-31T18:53:17.635Z,17.60
2022-12-31T18:55:49.079Z,20.37
2022-12-31T18:58:17.348Z,15.40
2022-12-31T19:00:46.384Z,13.02
2022-12-31T19:03:17.084Z,9.60
2022-12-31T19:05:49.783Z,8.87
2022-12-31T19:08:18.140Z,12.07
2022-12-31T19:10:47.122Z,10.17
2022-12-31T19:13:16.887Z,12.27
2022-12-31T19:15:46.408Z,19.53
2022-12-31T19:18:14.637Z,18.37
2022-12-31T19:20:42.703Z,17.00
2022-12-31T19:23:16.529Z,20.10
2022-12-31T19:25:45.097Z,18.27
2022-12-31T19:28:18.518Z,16.73
2022-12-31T19:30:47.011Z,22.17
2022-12-31T19:33:15.578Z,25.97
2022-12-31T19:35:44.224Z,21.07
2022-12-31T19:38:19.656Z,18.90
2022-12-31T19:40:48.176Z,20.57
2022-12-31T19:43:18.342Z,21.67
2022-12-31T19:45:46.615Z,19.07
2022-12-31T19:48:16.093Z,18.23
2022-12-31T19:50:45.988Z,19.27
2022-12-31T19:53:18.834Z,28.60
2022-12-31T19:55:46.820Z,22.80
2022-12-31T19:58:18.667Z,29.73
2022-12-31T20:00:51.710Z,24.83
2022-12-31T20:03:23.931Z,26.03
2022-12-31T20:05:52.199Z,33.80
2022-12-31T20:08:22.968Z,32.30
2022-12-31T20:10:51.097Z,36.27
2022-12-31T20:13:18.988Z,32.77
2022-12-31T20:15:47.975Z,32.27
2022-12-31T20:18:20.902Z,33.50
2022-12-31T20:20:55.334Z,30.57
2022-12-31T20:23:25.227Z,30.43
2022-12-31T20:26:03.265Z,32.20
2022-12-31T20:28:31.302Z,30.27
2022-12-31T20:30:59.449Z,35.58
2022-12-31T20:33:27.532Z,33.37
2022-12-31T20:35:55.469Z,28.00
2022-12-31T20:38:24.857Z,29.00
2022-12-31T20:40:53.254Z,29.43
2022-12-31T20:43:21.336Z,26.00
2022-12-31T20:45:49.490Z,27.80
2022-12-31T20:48:17.553Z,25.13
2022-12-31T20:50:54.462Z,34.13
2022-12-31T20:53:22.748Z,32.80
2022-12-31T20:55:52.372Z,29.73
2022-12-31T20:58:20.764Z,31.80
2022-12-31T21:00:50.823Z,25.50
2022-12-31T21:04:02.447Z,27.60
2022-12-31T21:06:08.099Z,31.53
2022-12-31T21:08:36.320Z,31.90
2022-12-31T21:11:26.768Z,28.57
2022-12-31T21:13:53.879Z,34.08
2022-12-31T21:16:21.931Z,31.30
2022-12-31T21:18:50.009Z,35.53
2022-12-31T21:21:18.295Z,27.47
2022-12-31T21:23:46.545Z,34.70
2022-12-31T21:26:16.213Z,41.35
2022-12-31T21:28:44.121Z,38.77
2022-12-31T21:31:15.206Z,38.40
2022-12-31T21:33:46.197Z,42.80
2022-12-31T21:36:14.294Z,36.43
2022-12-31T21:38:42.485Z,32.73
2022-12-31T21:41:33.453Z,262.70
2022-12-31T21:44:04.408Z,37.40
2022-12-31T21:46:32.448Z,28.77
2022-12-31T21:49:01.508Z,30.87
2022-12-31T21:51:30.003Z,26.27
2022-12-31T21:53:58.312Z,26.33
2022-12-31T21:56:25.394Z,28.10
2022-12-31T21:59:14.024Z,26.93
2022-12-31T22:02:09.762Z,25.30
2022-12-31T22:05:01.833Z,37.63
2022-12-31T22:07:25.745Z,34.37
2022-12-31T22:09:53.746Z,28.50
2022-12-31T22:12:21.835Z,26.20
2022-12-31T22:15:15.256Z,27.40
2022-12-31T22:17:39.638Z,23.40
2022-12-31T22:20:26.300Z,19.20
2022-12-31T22:22:55.742Z,20.47
2022-12-31T22:25:23.646Z,19.57
2022-12-31T22:28:27.503Z,27.70
2022-12-31T22:30:39.653Z,17.10
2022-12-31T22:33:09.099Z,21.87
2022-12-31T22:35:37.187Z,19.53
2022-12-31T22:38:09.976Z,19.60
2022-12-31T22:40:40.254Z,24.50
2022-12-31T22:43:08.486Z,17.50
2022-12-31T22:45:37.678Z,20.17
2022-12-31T22:48:06.156Z,25.57
2022-12-31T22:50:35.630Z,24.83
2022-12-31T22:53:03.665Z,25.77
2022-12-31T22:55:31.547Z,29.40
2022-12-31T22:57:59.612Z,22.77
2022-12-31T23:00:38.571Z,25.80
2022-12-31T23:03:08.077Z,28.98
2022-12-31T23:05:37.432Z,63.80
2022-12-31T23:08:14.416Z,135.17
2022-12-31T23:11:01.790Z,227.20
2022-12-31T23:13:51.424Z,226.77
2022-12-31T23:16:37.677Z,315.80
2022-12-31T23:19:24.015Z,298.37
2022-12-31T23:22:11.784Z,331.00
2022-12-31T23:24:39.879Z,304.57
2022-12-31T23:27:08.516Z,382.93
2022-12-31T23:29:45.664Z,295.80
2022-12-31T23:32:14.909Z,329.60
2022-12-31T23:34:44.558Z,317.43
2022-12-31T23:37:14.707Z,257.50
2022-12-31T23:39:43.360Z,283.97
2022-12-31T23:42:11.348Z,162.13
2022-12-31T23:44:39.568Z,160.60
2022-12-31T23:47:07.710Z,154.17
2022-12-31T23:49:35.845Z,146.33
2022-12-31T23:52:04.265Z,122.93
2022-12-31T23:54:35.220Z,130.53
2022-12-31T23:57:03.328Z,106.13
2022-12-31T23:59:31.317Z,89.13
